Shao Shan 5 — VRKO9 — position and weather

sailwx.info

Track history (hours):
 
Tides and Currents Weather Stations Pressure Air Temp Water Temp Dewpoint Dewpoint Depression Visibility Wind Speed Wind Dir Waves Ship Positions

Shao Shan 5

Last reported at 2015-Feb-07 03:05 UTC. Time now 2015-Mar-01 16:46 UTC.
Position N 35°57' W 005°35'.
Warning: this ship's position is 22 days out of date.

Length 225 m; draft 9.3 m.

Type: Cargo ship. MMSI: 477325700.

Date/timePositionNaut miles runAvg speedWind from/ knotsBaromVisibWave heightAir tempDewpointWater temp
2015-Feb-07 03:05N 35°57' W 005°35'510.3
2015-Feb-07 02:33N 35°60' W 005°29'7 6.7
2015-Feb-07 01:32N 36°05' W 005°24'0 0.1
2015-Feb-07 00:32N 36°05' W 005°24'0 0.0
2015-Feb-06 23:32N 36°05' W 005°24'0 0.0
2015-Feb-06 22:32N 36°05' W 005°24'0 0.1
2015-Feb-06 21:32N 36°05' W 005°24'0 0.0
2015-Feb-06 20:32N 36°05' W 005°24'0 0.0
2015-Feb-06 19:32N 36°05' W 005°24'0 0.1
2015-Feb-06 18:29N 36°05' W 005°24'2 2.0
2015-Feb-06 17:33N 36°04' W 005°22'6 5.8
2015-Feb-06 16:33N 36°03' W 005°15'  
2015-Feb-02 16:33N 36°50' E 013°38'7 7.4
2015-Feb-02 15:33N 36°49' E 013°46'7 7.0
2015-Feb-02 14:33N 36°47' E 013°55'8 7.7
2015-Feb-02 13:33N 36°45' E 014°04'9 8.8
2015-Feb-02 12:33N 36°43' E 014°15'8 8.1
2015-Feb-02 11:33N 36°41' E 014°25'8 7.5
2015-Feb-02 10:33N 36°39' E 014°34'7 7.2
2015-Feb-02 09:31N 36°37' E 014°43'18 8.9
2015-Feb-02 07:30N 36°34' E 015°05'  
Track history (hours):
 
Tides and Currents Weather Stations Pressure Air Temp Water Temp Dewpoint Dewpoint Depression Visibility Wind Speed Wind Dir Waves Ship Positions

Shao Shan 5

Last reported at 2015-Feb-07 03:05 UTC. Time now 2015-Mar-01 16:46 UTC.
Position N 35°57' W 005°35'.
Warning: this ship's position is 22 days out of date.

Length 225 m; draft 9.3 m.

Type: Cargo ship. MMSI: 477325700.

Date/timePositionNaut miles runAvg speedWind from/ knotsBaromVisibWave heightAir tempDewpointWater temp
2015-Feb-07 03:05N 35°57' W 005°35'510.3
2015-Feb-07 02:33N 35°60' W 005°29'7 6.7
2015-Feb-07 01:32N 36°05' W 005°24'0 0.1
2015-Feb-07 00:32N 36°05' W 005°24'0 0.0
2015-Feb-06 23:32N 36°05' W 005°24'0 0.0
2015-Feb-06 22:32N 36°05' W 005°24'0 0.1
2015-Feb-06 21:32N 36°05' W 005°24'0 0.0
2015-Feb-06 20:32N 36°05' W 005°24'0 0.0
2015-Feb-06 19:32N 36°05' W 005°24'0 0.1
2015-Feb-06 18:29N 36°05' W 005°24'2 2.0
2015-Feb-06 17:33N 36°04' W 005°22'6 5.8
2015-Feb-06 16:33N 36°03' W 005°15'  
2015-Feb-02 16:33N 36°50' E 013°38'7 7.4
2015-Feb-02 15:33N 36°49' E 013°46'7 7.0
2015-Feb-02 14:33N 36°47' E 013°55'8 7.7
2015-Feb-02 13:33N 36°45' E 014°04'9 8.8
2015-Feb-02 12:33N 36°43' E 014°15'8 8.1
2015-Feb-02 11:33N 36°41' E 014°25'8 7.5
2015-Feb-02 10:33N 36°39' E 014°34'7 7.2
2015-Feb-02 09:31N 36°37' E 014°43'18 8.9
2015-Feb-02 07:30N 36°34' E 015°05'  

Dump ship's entire track history